createdAt,value
2017-10-16T00:01:44.726Z,14.70
2017-10-16T00:04:18.254Z,14.70
2017-10-16T00:06:51.939Z,14.70
2017-10-16T00:09:25.478Z,14.60
2017-10-16T00:11:59.082Z,14.70
2017-10-16T00:14:32.574Z,14.60
2017-10-16T00:17:06.139Z,14.60
2017-10-16T00:19:39.663Z,14.60
2017-10-16T00:22:13.250Z,14.70
2017-10-16T00:24:46.778Z,14.60
2017-10-16T00:27:20.384Z,14.50
2017-10-16T00:29:53.983Z,14.50
2017-10-16T00:32:27.578Z,14.50
2017-10-16T00:35:01.383Z,14.50
2017-10-16T00:37:35.163Z,14.60
2017-10-16T00:40:08.786Z,14.60
2017-10-16T00:42:42.378Z,14.60
2017-10-16T00:45:15.987Z,14.70
2017-10-16T00:47:49.490Z,14.60
2017-10-16T00:50:22.996Z,14.60
2017-10-16T00:52:56.794Z,14.60
2017-10-16T00:55:30.394Z,14.50
2017-10-16T00:58:03.959Z,14.50
2017-10-16T01:00:37.604Z,14.60
2017-10-16T01:03:11.195Z,14.60
2017-10-16T01:05:44.918Z,14.60
2017-10-16T01:08:18.708Z,14.60
2017-10-16T01:10:52.191Z,14.60
2017-10-16T01:13:25.796Z,14.50
2017-10-16T01:15:59.371Z,14.50
2017-10-16T01:18:32.987Z,14.60
2017-10-16T01:21:06.820Z,14.60
2017-10-16T01:23:40.415Z,14.60
2017-10-16T01:26:14.912Z,14.50
2017-10-16T01:28:48.441Z,14.50
2017-10-16T01:31:22.144Z,14.50
2017-10-16T01:33:55.739Z,14.60
2017-10-16T01:36:29.394Z,14.50
2017-10-16T01:39:02.998Z,14.50
2017-10-16T01:41:36.646Z,14.60
2017-10-16T01:44:11.130Z,14.40
2017-10-16T01:46:44.743Z,14.40
2017-10-16T01:49:18.575Z,14.40
2017-10-16T01:51:52.174Z,14.40
2017-10-16T01:54:25.662Z,14.40
2017-10-16T01:56:59.354Z,14.40
2017-10-16T01:59:33.084Z,14.40
2017-10-16T02:02:06.679Z,14.40
2017-10-16T02:04:40.238Z,14.40
2017-10-16T02:07:13.838Z,14.50
2017-10-16T02:09:47.578Z,14.40
2017-10-16T02:12:21.188Z,14.50
2017-10-16T02:14:54.682Z,14.50
2017-10-16T02:17:28.945Z,14.40
2017-10-16T02:20:02.674Z,14.40
2017-10-16T02:22:36.995Z,14.40
2017-10-16T02:25:10.927Z,14.40
2017-10-16T02:27:44.511Z,14.30
2017-10-16T02:30:18.102Z,14.30
2017-10-16T02:32:51.737Z,14.40
2017-10-16T02:35:25.634Z,14.30
2017-10-16T02:37:59.342Z,14.30
2017-10-16T02:40:32.899Z,14.30
2017-10-16T02:43:06.519Z,14.30
2017-10-16T02:45:40.110Z,14.30
2017-10-16T02:48:14.290Z,14.30
2017-10-16T02:50:48.641Z,14.20
2017-10-16T02:53:22.255Z,14.20
2017-10-16T02:55:55.883Z,14.20
2017-10-16T02:58:30.921Z,14.20
2017-10-16T03:01:04.624Z,14.20
2017-10-16T03:03:38.224Z,14.20
2017-10-16T03:06:11.783Z,14.20
2017-10-16T03:08:45.282Z,14.30
2017-10-16T03:11:19.021Z,14.20
2017-10-16T03:13:53.219Z,14.30
2017-10-16T03:16:27.650Z,14.30
2017-10-16T03:19:01.463Z,14.30
2017-10-16T03:21:35.060Z,14.30
2017-10-16T03:24:08.737Z,14.20
2017-10-16T03:26:42.330Z,14.30
2017-10-16T03:29:15.838Z,14.30
2017-10-16T03:31:50.418Z,14.30
2017-10-16T03:34:24.804Z,14.30
2017-10-16T03:36:58.407Z,14.30
2017-10-16T03:39:31.950Z,14.40
2017-10-16T03:42:05.820Z,14.40
2017-10-16T03:44:39.727Z,14.40
2017-10-16T03:47:13.503Z,14.40
2017-10-16T03:49:47.018Z,14.40
2017-10-16T03:52:20.491Z,14.40
2017-10-16T03:54:54.033Z,14.40
2017-10-16T03:57:27.622Z,14.40
2017-10-16T04:00:01.138Z,14.40
2017-10-16T04:02:34.833Z,14.40
2017-10-16T04:05:08.417Z,14.40
2017-10-16T04:07:42.722Z,14.50
2017-10-16T04:10:16.452Z,14.50
2017-10-16T04:12:49.986Z,14.50
2017-10-16T04:15:23.766Z,14.50
2017-10-16T04:17:58.271Z,14.60
2017-10-16T04:20:31.879Z,14.60
2017-10-16T04:23:05.464Z,14.60
2017-10-16T04:25:39.078Z,14.60
2017-10-16T04:28:12.784Z,14.60
2017-10-16T04:30:46.373Z,14.60
2017-10-16T04:33:19.979Z,14.50
2017-10-16T04:35:53.484Z,14.50
2017-10-16T04:38:27.018Z,14.50
2017-10-16T04:41:00.551Z,14.60
2017-10-16T04:43:34.139Z,14.50
2017-10-16T04:46:07.669Z,14.50
2017-10-16T04:48:41.375Z,14.60
2017-10-16T04:51:14.991Z,14.60
2017-10-16T04:53:49.407Z,14.60
2017-10-16T04:56:23.102Z,14.60
2017-10-16T04:58:58.097Z,14.60
2017-10-16T05:01:31.723Z,14.60
2017-10-16T05:04:05.857Z,14.60
2017-10-16T05:06:39.454Z,14.60
2017-10-16T05:09:13.147Z,14.60
2017-10-16T05:11:46.874Z,14.70
2017-10-16T05:14:20.449Z,14.60
2017-10-16T05:16:54.025Z,14.50
2017-10-16T05:19:27.659Z,14.50
2017-10-16T05:22:01.138Z,14.50
2017-10-16T05:24:35.464Z,14.50
2017-10-16T05:27:09.084Z,14.50
2017-10-16T05:29:42.778Z,14.50
2017-10-16T05:32:16.265Z,14.50
2017-10-16T05:34:50.186Z,14.50
2017-10-16T05:37:23.786Z,14.60
2017-10-16T05:39:57.386Z,14.60
2017-10-16T05:42:31.691Z,14.60
2017-10-16T05:45:05.458Z,14.50
2017-10-16T05:47:39.016Z,14.50
2017-10-16T05:50:13.327Z,14.50
2017-10-16T05:52:46.891Z,14.50
2017-10-16T05:55:20.535Z,14.50
2017-10-16T05:57:54.227Z,14.50
2017-10-16T06:00:27.786Z,14.50
2017-10-16T06:03:01.287Z,14.50
2017-10-16T06:05:35.034Z,14.50
2017-10-16T06:08:08.838Z,14.50
2017-10-16T06:10:42.452Z,14.60
2017-10-16T06:13:16.166Z,14.60
2017-10-16T06:15:50.035Z,14.60
2017-10-16T06:18:23.726Z,14.60
2017-10-16T06:20:57.314Z,14.60
2017-10-16T06:23:30.909Z,14.50
2017-10-16T06:26:04.726Z,14.60
2017-10-16T06:28:38.959Z,14.60
2017-10-16T06:31:12.789Z,14.60
2017-10-16T06:33:46.362Z,14.60
2017-10-16T06:36:20.087Z,14.60
2017-10-16T06:38:53.686Z,14.60
2017-10-16T06:41:27.186Z,14.60
2017-10-16T06:44:00.786Z,14.70
2017-10-16T06:46:34.448Z,14.70
2017-10-16T06:49:07.993Z,14.70
2017-10-16T06:51:41.481Z,14.60
2017-10-16T06:54:15.106Z,14.60
2017-10-16T06:56:48.699Z,14.60
2017-10-16T06:59:22.346Z,14.60
2017-10-16T07:01:56.000Z,14.60
2017-10-16T07:04:29.658Z,14.60
2017-10-16T07:07:03.270Z,14.50
2017-10-16T07:09:36.871Z,14.60
2017-10-16T07:12:10.504Z,14.50
2017-10-16T07:14:44.208Z,14.50
2017-10-16T07:17:18.013Z,14.50
2017-10-16T07:19:51.701Z,14.60
2017-10-16T07:22:25.283Z,14.60
2017-10-16T07:24:58.815Z,14.60
2017-10-16T07:27:32.306Z,14.60
2017-10-16T07:30:06.023Z,14.60
2017-10-16T07:32:39.639Z,14.60
2017-10-16T07:35:14.154Z,14.70
2017-10-16T07:37:47.843Z,14.70
2017-10-16T07:40:21.419Z,14.70
2017-10-16T07:42:55.021Z,14.60
2017-10-16T07:45:28.530Z,14.60
2017-10-16T07:48:02.546Z,14.60
2017-10-16T07:50:36.142Z,14.70
2017-10-16T07:53:09.745Z,14.70
2017-10-16T07:55:43.258Z,14.70
2017-10-16T07:58:17.050Z,14.80
2017-10-16T08:00:50.660Z,14.80
2017-10-16T08:03:24.254Z,14.80
2017-10-16T08:05:57.958Z,14.80
2017-10-16T08:08:31.565Z,14.80
2017-10-16T08:11:05.877Z,14.80
2017-10-16T08:13:40.295Z,14.80
2017-10-16T08:16:13.786Z,14.80
2017-10-16T08:18:47.290Z,14.90
2017-10-16T08:21:21.000Z,14.90
2017-10-16T08:23:54.576Z,14.90
2017-10-16T08:26:28.408Z,14.90
2017-10-16T08:29:02.831Z,15.00
2017-10-16T08:31:36.393Z,15.00
2017-10-16T08:34:09.927Z,15.00
2017-10-16T08:36:43.634Z,15.10
2017-10-16T08:39:17.231Z,15.10
2017-10-16T08:41:50.926Z,15.20
2017-10-16T08:44:24.474Z,15.20
2017-10-16T08:46:58.335Z,15.20
2017-10-16T08:49:32.082Z,15.10
2017-10-16T08:52:05.901Z,15.20
2017-10-16T08:54:40.467Z,15.30
2017-10-16T08:57:14.792Z,15.40
2017-10-16T08:59:48.393Z,15.40
2017-10-16T09:02:22.096Z,15.60
2017-10-16T09:04:55.995Z,15.70
2017-10-16T09:07:29.705Z,15.80
2017-10-16T09:10:04.119Z,16.00
2017-10-16T09:12:37.728Z,15.90
2017-10-16T09:15:11.328Z,16.00
2017-10-16T09:17:44.919Z,16.10
2017-10-16T09:20:18.638Z,16.10
2017-10-16T09:22:52.302Z,16.10
2017-10-16T09:25:25.866Z,16.20
2017-10-16T09:27:59.425Z,16.20
2017-10-16T09:30:33.010Z,16.30
2017-10-16T09:33:06.629Z,16.30
2017-10-16T09:35:40.166Z,16.30
2017-10-16T09:38:14.035Z,16.30
2017-10-16T09:40:47.838Z,16.40
2017-10-16T09:43:21.555Z,16.50
2017-10-16T09:45:56.065Z,16.50
2017-10-16T09:48:30.382Z,16.50
2017-10-16T09:51:03.959Z,16.50
2017-10-16T09:53:37.550Z,16.50
2017-10-16T09:56:11.187Z,16.60
2017-10-16T09:58:44.863Z,16.60
2017-10-16T10:01:19.306Z,16.60
2017-10-16T10:03:53.010Z,16.60
2017-10-16T10:06:26.686Z,16.70
2017-10-16T10:09:00.214Z,16.70
2017-10-16T10:11:33.815Z,16.70
2017-10-16T10:14:07.314Z,16.70
2017-10-16T10:16:40.886Z,16.70
2017-10-16T10:19:14.387Z,16.80
2017-10-16T10:21:48.020Z,16.80
2017-10-16T10:24:21.511Z,16.80
2017-10-16T10:26:55.037Z,16.80
2017-10-16T10:29:28.810Z,16.80
2017-10-16T10:32:02.373Z,16.90
2017-10-16T10:34:35.980Z,16.90
2017-10-16T10:37:09.587Z,16.90
2017-10-16T10:39:43.191Z,16.90
2017-10-16T10:42:16.827Z,17.00
2017-10-16T10:44:51.337Z,17.00
2017-10-16T10:47:25.246Z,17.00
2017-10-16T10:49:59.874Z,17.00
2017-10-16T10:52:33.445Z,17.00
2017-10-16T10:55:06.963Z,17.00
2017-10-16T10:57:40.685Z,17.10
2017-10-16T11:00:14.379Z,17.10
2017-10-16T11:02:47.978Z,17.10
2017-10-16T11:05:21.793Z,17.10
2017-10-16T11:07:55.454Z,17.20
2017-10-16T11:10:29.075Z,17.20
2017-10-16T11:13:02.770Z,17.20
2017-10-16T11:15:36.310Z,17.20
2017-10-16T11:18:10.095Z,17.20
2017-10-16T11:20:43.687Z,17.20
2017-10-16T11:23:18.222Z,17.20
2017-10-16T11:25:51.922Z,17.20
2017-10-16T11:28:25.622Z,17.20
2017-10-16T11:30:59.322Z,17.20
2017-10-16T11:33:32.936Z,17.30
2017-10-16T11:36:06.530Z,17.30
2017-10-16T11:38:40.344Z,17.30
2017-10-16T11:41:13.908Z,17.30
2017-10-16T11:43:47.647Z,17.30
2017-10-16T11:46:21.248Z,17.30
2017-10-16T11:48:55.763Z,17.40
2017-10-16T11:51:29.346Z,17.30
2017-10-16T11:54:03.066Z,17.30
2017-10-16T11:56:36.744Z,17.40
2017-10-16T11:59:10.370Z,17.40
2017-10-16T12:01:44.184Z,17.40
2017-10-16T12:04:18.459Z,17.40
2017-10-16T12:06:51.987Z,17.30
2017-10-16T12:09:25.594Z,17.30
2017-10-16T12:11:59.079Z,17.40
2017-10-16T12:14:32.682Z,17.30
2017-10-16T12:17:06.394Z,17.30
2017-10-16T12:19:40.069Z,17.30
2017-10-16T12:22:14.628Z,17.30
2017-10-16T12:24:48.327Z,17.30
2017-10-16T12:27:22.842Z,17.40
2017-10-16T12:29:56.455Z,17.30
2017-10-16T12:32:30.939Z,17.40
2017-10-16T12:35:04.535Z,17.40
2017-10-16T12:37:38.062Z,17.40
2017-10-16T12:40:11.671Z,17.40
2017-10-16T12:42:45.123Z,17.50
2017-10-16T12:45:18.985Z,17.50
2017-10-16T12:47:52.739Z,17.50
2017-10-16T12:50:26.346Z,17.50
2017-10-16T12:52:59.938Z,17.50
2017-10-16T12:55:33.574Z,17.60
2017-10-16T12:58:07.182Z,17.60
2017-10-16T13:00:40.777Z,17.60
2017-10-16T13:03:14.384Z,17.60
2017-10-16T13:05:48.614Z,17.60
2017-10-16T13:08:23.016Z,17.60
2017-10-16T13:10:56.613Z,17.60
2017-10-16T13:13:30.289Z,17.60
2017-10-16T13:16:04.036Z,17.60
2017-10-16T13:18:37.610Z,17.60
2017-10-16T13:21:11.194Z,17.60
2017-10-16T13:23:44.821Z,17.60
2017-10-16T13:26:18.525Z,17.60
2017-10-16T13:28:53.027Z,17.60
2017-10-16T13:31:27.434Z,17.60
2017-10-16T13:34:01.184Z,17.60
2017-10-16T13:36:34.989Z,17.60
2017-10-16T13:39:08.546Z,17.60
2017-10-16T13:41:42.292Z,17.60
2017-10-16T13:44:15.886Z,17.60
2017-10-16T13:46:49.486Z,17.60
2017-10-16T13:49:23.022Z,17.60
2017-10-16T13:51:56.791Z,17.60
2017-10-16T13:54:30.391Z,17.60
2017-10-16T13:57:03.991Z,17.60
2017-10-16T13:59:37.595Z,17.60
2017-10-16T14:02:11.095Z,17.60
2017-10-16T14:04:45.582Z,17.60
2017-10-16T14:07:19.858Z,17.50
2017-10-16T14:09:54.218Z,17.60
2017-10-16T14:12:27.851Z,17.50
2017-10-16T14:15:01.451Z,17.60
2017-10-16T14:17:35.871Z,17.60
2017-10-16T14:20:10.295Z,17.60
2017-10-16T14:22:43.791Z,17.60
2017-10-16T14:25:17.594Z,17.50
2017-10-16T14:27:51.306Z,17.50
2017-10-16T14:30:24.799Z,17.60
2017-10-16T14:32:58.593Z,17.60
2017-10-16T14:35:32.162Z,17.50
2017-10-16T14:38:05.947Z,17.60
2017-10-16T14:40:39.554Z,17.60
2017-10-16T14:43:14.002Z,17.50
2017-10-16T14:45:47.640Z,17.50
2017-10-16T14:48:21.328Z,17.50
2017-10-16T14:50:55.035Z,17.50
2017-10-16T14:53:28.514Z,17.60
2017-10-16T14:56:02.230Z,17.50
2017-10-16T14:58:35.939Z,17.50
2017-10-16T15:01:13.937Z,17.50
2017-10-16T15:03:47.757Z,17.50
2017-10-16T15:06:23.397Z,17.50
2017-10-16T15:08:57.197Z,17.50
2017-10-16T15:11:31.722Z,17.50
2017-10-16T15:14:05.331Z,17.50
2017-10-16T15:16:38.911Z,17.50
2017-10-16T15:19:13.246Z,17.50
2017-10-16T15:21:46.846Z,17.50
2017-10-16T15:24:20.556Z,17.50
2017-10-16T15:26:54.135Z,17.50
2017-10-16T15:29:27.754Z,17.50
2017-10-16T15:32:01.334Z,17.50
2017-10-16T15:34:35.007Z,17.50
2017-10-16T15:37:09.563Z,17.50
2017-10-16T15:39:43.170Z,17.50
2017-10-16T15:42:16.742Z,17.50
2017-10-16T15:44:50.381Z,17.50
2017-10-16T15:47:23.974Z,17.50
2017-10-16T15:49:57.691Z,17.50
2017-10-16T15:52:31.407Z,17.50
2017-10-16T15:55:04.883Z,17.50
2017-10-16T15:57:38.519Z,17.50
2017-10-16T16:00:11.986Z,17.50
2017-10-16T16:02:45.690Z,17.50
2017-10-16T16:05:19.374Z,17.50
2017-10-16T16:07:53.195Z,17.50
2017-10-16T16:10:26.638Z,17.50
2017-10-16T16:13:00.161Z,17.50
2017-10-16T16:15:33.801Z,17.50
2017-10-16T16:18:07.364Z,17.50
2017-10-16T16:20:40.999Z,17.50
2017-10-16T16:23:14.711Z,17.50
2017-10-16T16:25:48.506Z,17.50
2017-10-16T16:28:22.098Z,17.40
2017-10-16T16:30:55.712Z,17.40
2017-10-16T16:33:29.297Z,17.40
2017-10-16T16:36:02.907Z,17.40
2017-10-16T16:38:36.511Z,17.30
2017-10-16T16:41:10.107Z,17.30
2017-10-16T16:43:43.663Z,17.30
2017-10-16T16:46:17.251Z,17.30
2017-10-16T16:48:50.775Z,17.20
2017-10-16T16:51:25.107Z,17.20
2017-10-16T16:54:00.159Z,17.20
2017-10-16T16:56:33.750Z,17.20
2017-10-16T16:59:07.558Z,17.20
2017-10-16T17:01:41.138Z,17.20
2017-10-16T17:04:14.762Z,17.20
2017-10-16T17:06:48.475Z,17.10
2017-10-16T17:09:22.070Z,17.10
2017-10-16T17:11:55.679Z,17.10
2017-10-16T17:14:29.229Z,17.00
2017-10-16T17:17:02.851Z,17.00
2017-10-16T17:19:37.307Z,17.00
2017-10-16T17:22:10.886Z,17.00
2017-10-16T17:24:44.494Z,17.00
2017-10-16T17:27:17.947Z,16.90
2017-10-16T17:29:51.502Z,16.90
2017-10-16T17:32:25.190Z,16.90
2017-10-16T17:34:58.894Z,16.90
2017-10-16T17:37:32.389Z,16.90
2017-10-16T17:40:06.098Z,16.90
2017-10-16T17:42:39.589Z,16.90
2017-10-16T17:45:13.583Z,16.90
2017-10-16T17:47:48.131Z,16.90
2017-10-16T17:50:21.696Z,16.90
2017-10-16T17:52:56.190Z,16.90
2017-10-16T17:55:31.266Z,16.90
2017-10-16T17:58:05.786Z,16.80
2017-10-16T18:00:39.485Z,16.80
2017-10-16T18:03:13.989Z,16.80
2017-10-16T18:05:47.601Z,16.70
2017-10-16T18:08:21.295Z,16.70
2017-10-16T18:10:54.914Z,16.60
2017-10-16T18:13:28.502Z,16.60
2017-10-16T18:16:02.003Z,16.60
2017-10-16T18:18:35.614Z,16.60
2017-10-16T18:21:09.219Z,16.60
2017-10-16T18:23:43.753Z,16.70
2017-10-16T18:26:17.808Z,16.70
2017-10-16T18:28:52.154Z,16.60
2017-10-16T18:31:25.866Z,16.50
2017-10-16T18:33:59.611Z,16.50
2017-10-16T18:36:33.306Z,16.50
2017-10-16T18:39:07.826Z,16.50
2017-10-16T18:41:41.389Z,16.50
2017-10-16T18:44:16.531Z,16.50
2017-10-16T18:46:50.251Z,16.40
2017-10-16T18:49:23.833Z,16.50
2017-10-16T18:51:57.464Z,16.50
2017-10-16T18:54:31.154Z,16.50
2017-10-16T18:57:04.758Z,16.50
2017-10-16T18:59:38.354Z,16.50
2017-10-16T19:02:12.062Z,16.50
2017-10-16T19:04:45.774Z,16.50
2017-10-16T19:07:19.250Z,16.50
2017-10-16T19:09:52.888Z,16.40
2017-10-16T19:12:27.387Z,16.40
2017-10-16T19:15:01.017Z,16.30
2017-10-16T19:17:34.571Z,16.30
2017-10-16T19:20:08.163Z,16.40
2017-10-16T19:22:41.681Z,16.50
2017-10-16T19:25:15.403Z,16.40
2017-10-16T19:27:49.014Z,16.40
2017-10-16T19:30:23.266Z,16.40
2017-10-16T19:32:56.969Z,16.40
2017-10-16T19:35:30.722Z,16.30
2017-10-16T19:38:04.295Z,16.30
2017-10-16T19:40:37.940Z,16.30
2017-10-16T19:43:11.637Z,16.20
2017-10-16T19:45:45.097Z,16.30
2017-10-16T19:48:18.543Z,16.30
2017-10-16T19:50:52.827Z,16.30
2017-10-16T19:53:26.346Z,16.30
2017-10-16T19:55:59.930Z,16.30
2017-10-16T19:58:33.543Z,16.20
2017-10-16T20:01:07.058Z,16.30
2017-10-16T20:03:40.747Z,16.30
2017-10-16T20:06:14.355Z,16.30
2017-10-16T20:08:47.995Z,16.30
2017-10-16T20:11:21.528Z,16.30
2017-10-16T20:13:55.056Z,16.30
2017-10-16T20:16:28.722Z,16.30
2017-10-16T20:19:02.363Z,16.30
2017-10-16T20:21:35.841Z,16.20
2017-10-16T20:24:11.205Z,16.20
2017-10-16T20:26:45.586Z,16.10
2017-10-16T20:29:19.799Z,16.10
2017-10-16T20:31:53.336Z,16.10
2017-10-16T20:34:26.971Z,16.10
2017-10-16T20:37:00.623Z,16.10
2017-10-16T20:39:34.189Z,16.10
2017-10-16T20:42:07.638Z,16.10
2017-10-16T20:44:41.222Z,16.10
2017-10-16T20:47:14.818Z,16.10
2017-10-16T20:49:49.226Z,16.10
2017-10-16T20:52:22.767Z,16.10
2017-10-16T20:54:56.426Z,16.00
2017-10-16T20:57:29.991Z,16.00
2017-10-16T21:00:03.503Z,15.90
2017-10-16T21:02:37.022Z,15.90
2017-10-16T21:05:10.538Z,16.00
2017-10-16T21:07:44.843Z,15.90
2017-10-16T21:10:18.430Z,15.90
2017-10-16T21:12:52.078Z,15.90
2017-10-16T21:15:25.715Z,15.80
2017-10-16T21:17:59.246Z,15.80
2017-10-16T21:20:33.544Z,15.90
2017-10-16T21:23:08.435Z,15.80
2017-10-16T21:25:43.547Z,15.90
2017-10-16T21:28:18.399Z,15.80
2017-10-16T21:30:53.531Z,15.80
2017-10-16T21:33:28.586Z,15.70
2017-10-16T21:36:02.846Z,15.80
2017-10-16T21:38:37.071Z,15.80
2017-10-16T21:41:11.274Z,15.80
2017-10-16T21:43:44.811Z,15.80
2017-10-16T21:46:18.343Z,15.80
2017-10-16T21:48:51.791Z,15.80
2017-10-16T21:51:25.293Z,15.70
2017-10-16T21:53:59.582Z,15.70
2017-10-16T21:56:33.086Z,15.70
2017-10-16T21:59:07.421Z,15.70
2017-10-16T22:01:40.985Z,15.70
2017-10-16T22:04:14.620Z,15.60
2017-10-16T22:06:48.371Z,15.60
2017-10-16T22:09:22.238Z,15.50
2017-10-16T22:11:55.803Z,15.60
2017-10-16T22:14:29.533Z,15.50
2017-10-16T22:17:03.210Z,15.60
2017-10-16T22:19:37.596Z,15.70
2017-10-16T22:22:11.967Z,15.70
2017-10-16T22:24:46.293Z,15.70
2017-10-16T22:27:19.869Z,15.70
2017-10-16T22:29:53.498Z,15.70
2017-10-16T22:32:27.061Z,15.70
2017-10-16T22:35:00.642Z,15.60
2017-10-16T22:37:34.412Z,15.60
2017-10-16T22:40:07.981Z,15.60
2017-10-16T22:42:41.554Z,15.60
2017-10-16T22:45:15.185Z,15.60
2017-10-16T22:47:48.896Z,15.60
2017-10-16T22:50:23.431Z,15.60
2017-10-16T22:52:57.139Z,15.60
2017-10-16T22:55:31.550Z,15.50
2017-10-16T22:58:05.251Z,15.50
2017-10-16T23:00:38.861Z,15.50
2017-10-16T23:03:12.558Z,15.50
2017-10-16T23:05:46.163Z,15.50
2017-10-16T23:08:20.488Z,15.50
2017-10-16T23:10:54.046Z,15.50
2017-10-16T23:13:27.582Z,15.50
2017-10-16T23:16:01.079Z,15.50
2017-10-16T23:18:34.799Z,15.50
2017-10-16T23:21:08.434Z,15.40
2017-10-16T23:23:42.093Z,15.40
2017-10-16T23:26:16.094Z,15.40
2017-10-16T23:28:49.703Z,15.40
2017-10-16T23:31:23.251Z,15.40
2017-10-16T23:33:56.770Z,15.30
2017-10-16T23:36:30.390Z,15.30
2017-10-16T23:39:04.909Z,15.40
2017-10-16T23:41:38.486Z,15.40
2017-10-16T23:44:12.091Z,15.40
2017-10-16T23:46:45.689Z,15.40
2017-10-16T23:49:19.326Z,15.30
2017-10-16T23:51:53.127Z,15.30
2017-10-16T23:54:26.732Z,15.30
2017-10-16T23:57:01.151Z,15.30
2017-10-16T23:59:34.706Z,15.30
